Time;durP1;ratioP1;P1;durP2;ratioP2;P2;SDS_P1;SDS_P2;PMS_P1;PMS_P2;Temp;Humidity;BMP_temperature;BMP_pressure;BME280_temperature;BME280_humidity;BME280_pressure;Samples;Min_cycle;Max_cycle;Signal;HPM_P1;HPM_P2
2023/04/10 00:01:39;;;;;;;43.33;28.65;;;8.40;99.90;;;;;;5038072;28;20045;-84
2023/04/10 00:04:05;;;;;;;41.20;28.45;;;8.40;99.90;;;;;;5034854;28;20044;-85
2023/04/10 00:06:31;;;;;;;39.22;26.98;;;8.30;99.90;;;;;;5064301;28;20082;-85
2023/04/10 00:08:58;;;;;;;44.38;28.08;;;8.30;99.90;;;;;;5047346;28;20116;-83
2023/04/10 00:11:25;;;;;;;43.90;28.75;;;8.30;99.90;;;;;;5049448;28;20043;-84
2023/04/10 00:13:52;;;;;;;46.88;30.45;;;8.20;99.90;;;;;;5042830;28;20041;-84
2023/04/10 00:16:18;;;;;;;44.80;29.45;;;8.20;99.90;;;;;;5063358;28;20044;-84
2023/04/10 00:18:44;;;;;;;41.88;28.98;;;8.20;99.90;;;;;;5046011;28;20518;-84
2023/04/10 00:21:09;;;;;;;45.88;30.00;;;8.20;99.90;;;;;;5037073;28;20044;-86
2023/04/10 00:23:36;;;;;;;44.33;30.02;;;8.20;99.90;;;;;;5055315;28;20043;-84
2023/04/10 00:26:03;;;;;;;42.88;30.20;;;8.10;99.90;;;;;;5054055;28;20056;-84
2023/04/10 00:28:28;;;;;;;44.38;29.08;;;8.10;99.90;;;;;;5049319;28;20036;-84
2023/04/10 00:30:54;;;;;;;46.20;29.48;;;8.10;99.90;;;;;;5054944;28;20038;-84
2023/04/10 00:33:20;;;;;;;43.55;29.35;;;8.10;99.90;;;;;;5048006;28;20040;-85
2023/04/10 00:35:45;;;;;;;43.35;29.58;;;8.00;99.90;;;;;;5049275;28;20045;-84
2023/04/10 00:38:12;;;;;;;45.17;29.75;;;8.00;99.90;;;;;;5043088;28;20041;-84
2023/04/10 00:40:37;;;;;;;44.95;29.88;;;8.00;99.90;;;;;;5034890;28;20029;-84
2023/04/10 00:43:03;;;;;;;44.22;30.83;;;7.90;99.90;;;;;;5052234;28;20101;-84
2023/04/10 00:45:29;;;;;;;49.22;32.30;;;7.90;99.90;;;;;;5050580;28;20406;-84
2023/04/10 00:47:55;;;;;;;49.55;32.03;;;7.90;99.90;;;;;;5040682;28;20029;-85
2023/04/10 00:50:21;;;;;;;51.33;33.10;;;7.90;99.90;;;;;;5071133;28;20071;-84
2023/04/10 00:52:48;;;;;;;57.53;35.95;;;7.80;99.90;;;;;;5035527;28;20416;-84
2023/04/10 00:55:14;;;;;;;57.80;35.55;;;7.70;99.90;;;;;;5035084;28;20080;-83
2023/04/10 00:57:45;;;;;;;63.22;36.95;;;7.70;99.90;;;;;;5034319;28;20143;-84
2023/04/10 01:00:14;;;;;;;58.63;36.42;;;7.60;99.90;;;;;;5035084;28;20496;-84
2023/04/10 01:02:40;;;;;;;54.05;34.33;;;7.60;99.90;;;;;;5018789;28;20524;-84
2023/04/10 01:05:07;;;;;;;55.67;35.33;;;7.60;99.90;;;;;;5054582;28;20040;-84
2023/04/10 01:07:41;;;;;;;55.00;35.38;;;7.60;99.90;;;;;;5049746;28;20033;-84
2023/04/10 01:10:35;;;;;;;49.50;33.00;;;7.60;99.90;;;;;;5047540;28;20171;-84
2023/04/10 01:13:16;;;;;;;49.63;32.53;;;7.50;99.90;;;;;;5040977;28;20048;-84
2023/04/10 01:16:13;;;;;;;46.67;30.90;;;7.50;99.90;;;;;;5046145;28;20509;-84
2023/04/10 01:18:42;;;;;;;46.53;31.38;;;7.40;99.90;;;;;;5034598;28;20500;-84
2023/04/10 01:21:11;;;;;;;45.60;31.25;;;7.50;99.90;;;;;;5038788;28;20044;-84
2023/04/10 01:23:56;;;;;;;47.88;32.05;;;7.40;99.90;;;;;;5044674;28;20070;-84
2023/04/10 01:26:31;;;;;;;47.10;32.05;;;7.40;99.90;;;;;;5036994;28;20044;-84
2023/04/10 01:29:05;;;;;;;49.38;33.35;;;7.30;99.90;;;;;;5034839;28;20037;-84
2023/04/10 01:31:57;;;;;;;45.83;31.00;;;7.30;99.90;;;;;;5035347;28;20051;-85
2023/04/10 01:34:33;;;;;;;44.72;31.77;;;7.30;99.90;;;;;;5047879;28;20041;-83
2023/04/10 01:37:07;;;;;;;45.33;31.88;;;7.30;99.90;;;;;;5034504;28;20041;-84
2023/04/10 01:39:37;;;;;;;47.80;32.40;;;7.20;99.90;;;;;;5049225;28;20507;-84
2023/04/10 01:42:06;;;;;;;49.33;32.95;;;7.20;99.90;;;;;;5054222;28;20040;-85
2023/04/10 01:44:35;;;;;;;47.50;32.13;;;7.20;99.90;;;;;;5050757;28;20048;-84
2023/04/10 01:47:03;;;;;;;49.25;33.47;;;7.20;99.90;;;;;;5047907;28;20407;-84
2023/04/10 01:49:31;;;;;;;48.30;33.88;;;7.10;99.90;;;;;;5040760;28;20047;-84
2023/04/10 01:51:59;;;;;;;48.45;33.65;;;7.20;99.90;;;;;;5055719;28;20106;-85
2023/04/10 01:54:30;;;;;;;51.95;34.97;;;7.10;99.90;;;;;;5052775;28;20040;-84
2023/04/10 01:56:58;;;;;;;48.03;34.05;;;7.10;99.90;;;;;;5042688;28;20034;-85
2023/04/10 01:59:24;;;;;;;51.60;34.75;;;7.10;99.90;;;;;;5034934;28;20041;-85
2023/04/10 02:01:59;;;;;;;46.58;32.53;;;7.10;99.90;;;;;;5047917;28;20036;-85
2023/04/10 02:04:25;;;;;;;50.90;35.08;;;7.10;99.90;;;;;;5053861;28;20042;-85
2023/04/10 02:07:30;;;;;;;47.97;33.72;;;7.10;99.90;;;;;;5048426;28;20020;-84
2023/04/10 02:10:11;;;;;;;51.38;35.05;;;7.10;99.90;;;;;;5049857;28;20044;-85
2023/04/10 02:12:59;;;;;;;53.80;37.03;;;7.00;99.90;;;;;;5034681;28;20037;-84
2023/04/10 02:15:27;;;;;;;50.70;35.28;;;7.10;99.90;;;;;;5034632;28;20464;-85
2023/04/10 02:17:54;;;;;;;52.65;36.40;;;7.10;99.90;;;;;;5037915;28;20041;-85
2023/04/10 02:20:21;;;;;;;51.70;35.72;;;7.00;99.90;;;;;;5048257;28;20119;-85
2023/04/10 02:22:48;;;;;;;57.22;37.08;;;7.00;99.90;;;;;;5038111;28;20141;-85
2023/04/10 02:25:17;;;;;;;54.67;37.55;;;7.00;99.90;;;;;;5044544;28;20071;-84
2023/04/10 02:27:43;;;;;;;55.92;37.78;;;7.00;99.90;;;;;;5049367;28;20033;-85
2023/04/10 02:30:10;;;;;;;56.90;37.17;;;7.00;99.90;;;;;;5061717;28;20046;-85
2023/04/10 02:32:38;;;;;;;53.58;35.25;;;7.00;99.90;;;;;;5078480;28;20032;-84
2023/04/10 02:35:04;;;;;;;52.35;37.03;;;7.00;99.90;;;;;;5043047;28;20037;-85
2023/04/10 02:37:31;;;;;;;54.30;36.80;;;7.00;99.90;;;;;;5047598;28;20052;-84
2023/04/10 02:39:57;;;;;;;53.95;36.72;;;7.00;99.90;;;;;;5037640;28;20102;-84
2023/04/10 02:42:22;;;;;;;56.60;38.30;;;7.00;99.90;;;;;;5060518;28;20041;-84
2023/04/10 02:44:48;;;;;;;55.83;37.92;;;7.00;99.90;;;;;;5036875;28;20532;-84
2023/04/10 02:47:14;;;;;;;58.35;39.13;;;6.90;99.90;;;;;;5055348;28;20032;-84
2023/04/10 02:49:40;;;;;;;54.30;37.47;;;6.90;99.90;;;;;;5052422;28;20043;-86
2023/04/10 02:52:06;;;;;;;55.55;38.95;;;7.00;99.90;;;;;;5045568;28;20119;-84
2023/04/10 02:54:31;;;;;;;55.65;37.00;;;6.90;99.90;;;;;;5048888;28;20040;-84
2023/04/10 02:56:57;;;;;;;56.05;37.72;;;6.90;99.90;;;;;;5040138;28;20052;-84
2023/04/10 02:59:23;;;;;;;57.63;38.40;;;6.90;99.90;;;;;;5071550;28;20036;-85
2023/04/10 03:01:51;;;;;;;57.45;38.38;;;6.90;99.90;;;;;;5050221;28;20086;-85
2023/04/10 03:04:17;;;;;;;55.58;37.75;;;6.90;99.90;;;;;;5049409;28;20036;-85
2023/04/10 03:06:43;;;;;;;55.00;37.78;;;6.90;99.90;;;;;;5061962;28;20033;-84
2023/04/10 03:09:08;;;;;;;54.50;36.95;;;6.90;99.90;;;;;;5065698;28;20095;-84
2023/04/10 03:11:34;;;;;;;56.38;37.45;;;6.80;99.90;;;;;;5036535;28;20115;-84
2023/04/10 03:14:00;;;;;;;56.45;37.50;;;6.80;99.90;;;;;;5056445;28;20075;-85
2023/04/10 03:16:25;;;;;;;55.33;36.65;;;6.80;99.90;;;;;;5049964;28;20063;-84
2023/04/10 03:18:52;;;;;;;58.55;37.67;;;6.80;99.90;;;;;;5047290;28;20039;-84
2023/04/10 03:21:17;;;;;;;57.10;36.97;;;6.80;99.90;;;;;;5054551;28;20047;-85
2023/04/10 03:23:43;;;;;;;54.25;36.30;;;6.70;99.90;;;;;;5056385;28;20032;-85
2023/04/10 03:26:08;;;;;;;56.22;36.67;;;6.70;99.90;;;;;;5044960;28;20066;-85
2023/04/10 03:28:35;;;;;;;55.60;37.35;;;6.70;99.90;;;;;;5051735;28;20511;-84
2023/04/10 03:31:02;;;;;;;54.47;37.08;;;6.70;99.90;;;;;;5035572;28;20040;-85
2023/04/10 03:33:28;;;;;;;52.78;37.03;;;6.70;99.90;;;;;;5056002;28;20520;-85
2023/04/10 03:35:53;;;;;;;55.03;37.55;;;6.70;99.90;;;;;;5048680;28;20041;-85
2023/04/10 03:38:19;;;;;;;53.38;37.30;;;6.70;99.90;;;;;;5042726;28;20080;-85
2023/04/10 03:40:45;;;;;;;55.10;37.55;;;6.60;99.90;;;;;;5035533;28;20040;-85
2023/04/10 03:43:10;;;;;;;54.53;35.55;;;6.60;99.90;;;;;;5051962;28;20037;-84
2023/04/10 03:45:36;;;;;;;52.60;36.42;;;6.60;99.90;;;;;;5037046;28;20029;-85
2023/04/10 03:48:02;;;;;;;51.47;35.63;;;6.60;99.90;;;;;;5042803;28;20036;-84
2023/04/10 03:50:27;;;;;;;52.78;36.47;;;6.60;99.90;;;;;;5043030;28;20068;-85
2023/04/10 03:52:53;;;;;;;54.85;36.30;;;6.60;99.90;;;;;;5037300;28;20072;-84
2023/04/10 03:55:18;;;;;;;51.55;36.70;;;6.50;99.90;;;;;;5035125;28;20072;-84
2023/04/10 03:57:45;;;;;;;53.47;35.95;;;6.50;99.90;;;;;;5056959;28;20032;-85
2023/04/10 04:00:12;;;;;;;55.33;37.28;;;6.50;99.90;;;;;;5043568;28;20056;-84
2023/04/10 04:02:37;;;;;;;52.20;35.45;;;6.50;99.90;;;;;;5056147;28;20041;-84
2023/04/10 04:05:03;;;;;;;57.40;37.38;;;6.50;99.90;;;;;;5054476;28;20033;-86
2023/04/10 04:07:29;;;;;;;55.45;36.25;;;6.50;99.90;;;;;;5055139;28;20119;-84
2023/04/10 04:09:54;;;;;;;54.72;36.65;;;6.50;99.90;;;;;;5045564;28;20076;-84
2023/04/10 04:12:20;;;;;;;53.50;36.22;;;6.50;99.90;;;;;;5045082;28;20037;-84
2023/04/10 04:14:45;;;;;;;55.95;37.15;;;6.40;99.90;;;;;;5050844;28;20051;-85
2023/04/10 04:17:11;;;;;;;53.35;36.65;;;6.50;99.90;;;;;;5047455;28;20113;-84
2023/04/10 04:19:37;;;;;;;55.83;37.42;;;6.40;99.90;;;;;;5052364;28;20106;-85
2023/04/10 04:22:03;;;;;;;54.42;36.80;;;6.40;99.90;;;;;;5048265;28;20132;-84
2023/04/10 04:24:28;;;;;;;53.95;37.67;;;6.40;99.90;;;;;;5043337;28;20117;-85
2023/04/10 04:26:55;;;;;;;55.58;38.00;;;6.40;99.90;;;;;;5046294;28;20054;-85
2023/04/10 04:29:21;;;;;;;56.45;37.97;;;6.40;99.90;;;;;;5061007;28;20097;-85
2023/04/10 04:31:46;;;;;;;56.05;37.38;;;6.40;99.90;;;;;;5046136;28;20480;-85
2023/04/10 04:34:12;;;;;;;54.33;37.10;;;6.40;99.90;;;;;;5045631;28;20032;-85
2023/04/10 04:36:37;;;;;;;55.78;38.05;;;6.40;99.90;;;;;;5043179;28;20113;-84
2023/04/10 04:39:03;;;;;;;56.92;37.60;;;6.40;99.90;;;;;;5063346;28;20037;-84
2023/04/10 04:41:31;;;;;;;55.30;37.30;;;6.40;99.90;;;;;;5048014;28;20072;-84
2023/04/10 04:43:57;;;;;;;57.05;37.70;;;6.40;99.90;;;;;;5045359;28;20048;-84
2023/04/10 04:46:22;;;;;;;56.22;37.50;;;6.50;99.90;;;;;;5043172;28;20029;-84
2023/04/10 04:48:48;;;;;;;57.40;38.38;;;6.50;99.90;;;;;;5056042;28;20115;-85
2023/04/10 04:51:14;;;;;;;56.58;38.10;;;6.50;99.90;;;;;;5041464;28;20047;-84
2023/04/10 04:53:39;;;;;;;56.88;38.08;;;6.50;99.90;;;;;;5049617;28;20412;-84
2023/04/10 04:56:05;;;;;;;57.72;37.30;;;6.50;99.90;;;;;;5060113;28;20500;-85
2023/04/10 04:58:31;;;;;;;55.72;37.08;;;6.60;99.90;;;;;;5047387;28;20036;-84
2023/04/10 05:00:56;;;;;;;54.15;37.22;;;6.60;99.90;;;;;;5065496;28;20527;-84
2023/04/10 05:03:22;;;;;;;59.55;37.92;;;6.70;99.90;;;;;;5067951;28;20032;-85
2023/04/10 05:05:48;;;;;;;61.20;37.83;;;6.80;99.90;;;;;;5059184;28;20131;-84
2023/04/10 05:08:13;;;;;;;55.42;36.58;;;6.80;99.90;;;;;;5058930;28;20040;-84
2023/04/10 05:10:39;;;;;;;55.35;37.25;;;6.90;99.90;;;;;;5067906;28;20041;-85
2023/04/10 05:13:04;;;;;;;54.53;37.28;;;6.90;99.90;;;;;;5057629;28;20041;-85
2023/04/10 05:15:30;;;;;;;54.53;37.08;;;7.00;99.90;;;;;;5054695;28;20040;-84
2023/04/10 05:17:56;;;;;;;58.75;37.92;;;7.00;99.90;;;;;;5033015;28;20076;-85
2023/04/10 05:20:21;;;;;;;54.10;36.30;;;7.10;99.90;;;;;;5058515;28;20545;-84
2023/04/10 05:22:47;;;;;;;54.15;36.38;;;7.10;99.90;;;;;;5066621;28;20457;-85
2023/04/10 05:25:13;;;;;;;51.85;36.47;;;7.20;99.90;;;;;;5066341;28;20043;-84
2023/04/10 05:27:38;;;;;;;53.17;36.03;;;7.20;99.90;;;;;;5067169;28;20040;-84
2023/04/10 05:30:04;;;;;;;51.05;35.58;;;7.20;99.90;;;;;;5061265;28;20041;-84
2023/04/10 05:32:30;;;;;;;52.80;34.95;;;7.30;99.90;;;;;;5060038;28;20052;-85
2023/04/10 05:34:55;;;;;;;54.53;35.10;;;7.30;99.90;;;;;;5066060;28;20051;-84
2023/04/10 05:37:21;;;;;;;51.65;34.83;;;7.40;99.90;;;;;;5063448;28;20080;-84
2023/04/10 05:39:46;;;;;;;50.55;35.10;;;7.30;99.90;;;;;;5041353;28;20127;-88
2023/04/10 05:42:12;;;;;;;48.08;33.33;;;7.40;99.90;;;;;;5057078;28;20055;-84
2023/04/10 05:44:38;;;;;;;47.72;33.22;;;7.40;99.90;;;;;;5040365;28;20041;-85
2023/04/10 05:47:04;;;;;;;49.22;34.13;;;7.50;99.90;;;;;;5054912;28;20047;-84
2023/04/10 05:49:30;;;;;;;49.35;34.67;;;7.50;99.90;;;;;;5066249;28;20107;-84
2023/04/10 05:51:55;;;;;;;47.58;32.45;;;7.60;99.90;;;;;;5064028;28;20062;-84
2023/04/10 05:54:21;;;;;;;46.47;32.67;;;7.60;99.90;;;;;;5057101;28;20733;-86
2023/04/10 05:56:47;;;;;;;47.88;33.88;;;7.60;99.90;;;;;;5064750;28;20052;-84
2023/04/10 05:59:12;;;;;;;46.17;33.03;;;7.60;99.90;;;;;;5062348;28;20036;-85
2023/04/10 06:01:39;;;;;;;51.55;33.05;;;7.70;99.90;;;;;;5058334;28;20072;-84
2023/04/10 06:04:05;;;;;;;48.80;31.95;;;7.70;99.90;;;;;;5065085;28;20048;-84
2023/04/10 06:06:31;;;;;;;51.00;33.38;;;7.80;99.90;;;;;;5068289;28;20040;-84
2023/04/10 06:08:57;;;;;;;48.85;32.25;;;7.80;99.90;;;;;;5069871;28;20400;-85
2023/04/10 06:11:22;;;;;;;46.47;31.17;;;7.90;99.90;;;;;;5062343;28;20056;-84
2023/04/10 06:13:48;;;;;;;47.10;32.92;;;7.90;99.90;;;;;;5058712;28;20493;-84
2023/04/10 06:16:16;;;;;;;45.17;30.70;;;8.00;99.90;;;;;;5061956;28;20606;-86
2023/04/10 06:18:42;;;;;;;47.35;31.48;;;8.10;99.90;;;;;;5071924;28;20408;-85
2023/04/10 06:21:07;;;;;;;44.90;29.80;;;8.20;99.90;;;;;;5052748;28;20051;-84
2023/04/10 06:23:33;;;;;;;47.13;31.08;;;8.20;99.90;;;;;;5047983;28;20408;-84
2023/04/10 06:26:00;;;;;;;44.92;30.83;;;8.30;99.90;;;;;;5073067;28;20404;-84
2023/04/10 06:28:25;;;;;;;43.53;29.65;;;8.40;99.90;;;;;;5062185;28;20524;-84
2023/04/10 06:30:51;;;;;;;44.47;30.27;;;8.50;99.90;;;;;;5060123;28;20120;-83
2023/04/10 06:33:16;;;;;;;42.22;28.30;;;8.50;99.90;;;;;;5062806;28;20107;-84
2023/04/10 06:35:42;;;;;;;43.20;27.98;;;8.60;99.90;;;;;;5068156;28;20115;-84
2023/04/10 06:38:08;;;;;;;41.47;27.88;;;8.70;99.90;;;;;;5056064;28;20157;-84
2023/04/10 06:40:34;;;;;;;39.75;27.55;;;8.70;99.90;;;;;;5067191;28;20064;-85
2023/04/10 06:43:00;;;;;;;39.08;26.55;;;8.70;99.90;;;;;;5066245;28;20064;-84
2023/04/10 06:45:25;;;;;;;43.83;28.25;;;8.80;99.90;;;;;;5065516;28;20488;-84
2023/04/10 06:47:51;;;;;;;40.03;27.27;;;8.90;99.90;;;;;;5066696;28;20048;-84
2023/04/10 06:50:17;;;;;;;39.65;27.73;;;9.00;99.90;;;;;;5065198;28;20047;-84
2023/04/10 06:52:46;;;;;;;41.15;27.98;;;9.40;99.90;;;;;;5065016;28;20041;-84
2023/04/10 06:55:12;;;;;;;44.58;28.83;;;9.10;99.90;;;;;;5036642;28;20264;-84
2023/04/10 06:57:38;;;;;;;43.00;28.38;;;9.30;99.90;;;;;;5070570;28;20048;-84
2023/04/10 07:00:07;;;;;;;39.80;26.55;;;9.40;99.90;;;;;;5069090;28;20079;-86
2023/04/10 07:02:32;;;;;;;40.55;27.98;;;9.50;99.90;;;;;;5059215;28;20053;-85
2023/04/10 07:04:58;;;;;;;40.47;27.40;;;9.60;99.90;;;;;;5064056;28;20042;-84
2023/04/10 07:07:23;;;;;;;40.75;27.13;;;9.50;99.90;;;;;;5066340;28;20033;-83
2023/04/10 07:09:49;;;;;;;38.05;26.80;;;9.50;99.90;;;;;;5061151;28;20041;-84
2023/04/10 07:12:15;;;;;;;40.63;27.17;;;9.50;99.90;;;;;;5067926;28;20051;-86
2023/04/10 07:14:41;;;;;;;39.30;26.98;;;9.60;99.90;;;;;;5066764;28;20508;-85
2023/04/10 07:17:07;;;;;;;38.50;26.80;;;9.70;99.90;;;;;;5060980;28;20036;-84
2023/04/10 07:19:32;;;;;;;40.05;26.48;;;9.80;99.90;;;;;;5060257;28;20546;-84
2023/04/10 07:21:58;;;;;;;40.35;27.23;;;9.80;99.90;;;;;;5060946;28;20043;-83
2023/04/10 07:24:24;;;;;;;43.00;28.05;;;9.90;99.90;;;;;;5068715;28;20077;-84
2023/04/10 07:26:49;;;;;;;40.00;26.83;;;9.90;99.90;;;;;;5056081;28;20482;-83
2023/04/10 07:29:15;;;;;;;39.58;26.92;;;10.00;99.90;;;;;;5053096;28;20035;-84
2023/04/10 07:31:41;;;;;;;39.17;26.73;;;10.10;99.90;;;;;;5054324;28;20037;-83
2023/04/10 07:34:06;;;;;;;37.55;26.42;;;10.30;99.90;;;;;;5062815;28;20119;-84
2023/04/10 07:36:32;;;;;;;40.90;27.52;;;10.50;99.90;;;;;;5064314;28;20040;-83
2023/04/10 07:38:58;;;;;;;41.22;27.02;;;10.50;99.90;;;;;;5057330;28;20049;-83
2023/04/10 07:41:24;;;;;;;39.35;25.67;;;10.70;99.90;;;;;;5057440;28;20128;-84
2023/04/10 07:43:49;;;;;;;38.28;26.60;;;10.90;99.90;;;;;;5052243;28;20049;-83
2023/04/10 07:46:16;;;;;;;38.42;26.33;;;11.00;99.90;;;;;;5053110;28;20488;-84
2023/04/10 07:48:41;;;;;;;36.60;25.20;;;11.20;99.90;;;;;;5052186;28;20069;-84
2023/04/10 07:51:08;;;;;;;36.30;26.00;;;11.40;99.90;;;;;;5057182;28;20079;-83
2023/04/10 07:53:35;;;;;;;34.00;24.42;;;11.50;99.90;;;;;;5055263;28;20088;-83
2023/04/10 07:56:01;;;;;;;33.35;23.77;;;11.70;99.90;;;;;;5044917;28;20040;-83
2023/04/10 07:58:27;;;;;;;36.85;25.88;;;11.90;99.90;;;;;;5063875;28;20044;-83
2023/04/10 08:00:52;;;;;;;35.30;25.42;;;12.00;99.90;;;;;;5061721;28;20048;-83
2023/04/10 08:03:18;;;;;;;36.50;25.55;;;12.10;99.90;;;;;;5064397;28;20438;-83
2023/04/10 08:05:44;;;;;;;37.33;24.83;;;12.10;99.90;;;;;;5061394;28;20039;-83
2023/04/10 08:08:09;;;;;;;35.88;24.92;;;12.20;99.90;;;;;;5059787;28;20118;-82
2023/04/10 08:10:36;;;;;;;33.97;24.85;;;12.20;99.90;;;;;;5053860;28;20063;-82
2023/04/10 08:13:02;;;;;;;33.13;24.02;;;12.30;99.90;;;;;;5058426;28;20056;-84
2023/04/10 08:15:27;;;;;;;31.45;22.80;;;12.30;99.90;;;;;;5061313;28;20044;-84
2023/04/10 08:17:53;;;;;;;33.58;24.70;;;12.40;99.90;;;;;;5057768;28;20056;-82
2023/04/10 08:20:19;;;;;;;33.53;24.50;;;12.40;99.90;;;;;;5055728;28;20461;-85
2023/04/10 08:22:44;;;;;;;32.38;23.48;;;12.40;99.90;;;;;;5067480;28;20067;-83
2023/04/10 08:25:10;;;;;;;30.48;21.88;;;12.40;99.90;;;;;;5065932;28;20041;-83
2023/04/10 08:27:36;;;;;;;31.80;22.90;;;12.50;99.90;;;;;;5069101;28;20048;-83
2023/04/10 08:30:01;;;;;;;30.95;21.95;;;12.70;99.90;;;;;;5071401;28;20048;-83
2023/04/10 08:32:28;;;;;;;31.33;22.23;;;12.80;99.90;;;;;;5068963;28;20048;-84
2023/04/10 08:34:53;;;;;;;30.27;22.27;;;12.90;99.90;;;;;;5048081;28;20056;-84
2023/04/10 08:37:20;;;;;;;30.92;22.77;;;13.00;99.90;;;;;;5066315;28;20036;-85
2023/04/10 08:39:45;;;;;;;33.28;22.83;;;13.10;99.90;;;;;;5058065;28;20040;-84
2023/04/10 08:42:11;;;;;;;31.55;22.77;;;13.20;99.90;;;;;;5063144;28;20048;-85
2023/04/10 08:44:38;;;;;;;30.25;22.35;;;13.30;99.90;;;;;;5067069;28;20405;-85
2023/04/10 08:47:05;;;;;;;31.38;23.08;;;13.40;99.90;;;;;;5066405;28;20041;-85
2023/04/10 08:49:33;;;;;;;29.30;21.17;;;13.30;99.90;;;;;;5054289;28;20433;-84
2023/04/10 08:52:03;;;;;;;28.58;20.67;;;13.30;99.90;;;;;;5054325;28;20044;-84
2023/04/10 08:54:34;;;;;;;31.83;21.58;;;13.40;99.90;;;;;;5059502;28;20048;-84
2023/04/10 08:57:00;;;;;;;27.85;20.13;;;13.60;99.90;;;;;;5060301;28;20451;-84
2023/04/10 08:59:30;;;;;;;29.88;22.05;;;13.70;99.90;;;;;;5054574;28;20045;-84
2023/04/10 09:01:56;;;;;;;30.40;21.73;;;13.90;99.90;;;;;;5053978;28;20106;-84
2023/04/10 09:04:26;;;;;;;27.10;19.52;;;14.00;99.90;;;;;;5052856;28;20072;-83
2023/04/10 09:06:52;;;;;;;26.52;19.77;;;14.00;99.90;;;;;;5053149;28;20485;-84
2023/04/10 09:09:18;;;;;;;25.92;18.55;;;14.10;99.90;;;;;;5051784;28;20045;-83
2023/04/10 09:11:54;;;;;;;24.42;17.92;;;14.20;99.90;;;;;;5052734;28;20037;-83
2023/04/10 09:14:28;;;;;;;23.63;17.83;;;14.40;99.90;;;;;;5059640;28;20076;-83
2023/04/10 09:17:16;;;;;;;24.48;17.83;;;14.50;99.90;;;;;;5036280;28;20099;-83
2023/04/10 09:19:44;;;;;;;22.10;16.80;;;14.70;99.90;;;;;;5051281;28;20102;-84
2023/04/10 09:22:10;;;;;;;23.15;17.13;;;14.80;99.90;;;;;;5066343;28;20045;-84
2023/04/10 09:24:41;;;;;;;24.13;18.33;;;14.80;99.90;;;;;;5051788;28;20385;-84
2023/04/10 09:27:07;;;;;;;25.02;17.98;;;14.80;99.90;;;;;;5043560;28;20044;-85
2023/04/10 09:29:41;;;;;;;24.15;17.92;;;14.80;99.90;;;;;;5067239;28;20041;-84
2023/04/10 09:32:07;;;;;;;23.63;17.42;;;14.80;99.90;;;;;;5068109;28;20040;-85
2023/04/10 09:34:32;;;;;;;22.58;16.20;;;14.70;99.90;;;;;;5064602;28;20048;-84
2023/04/10 09:37:02;;;;;;;20.52;14.80;;;14.70;99.90;;;;;;5065172;28;20040;-83
2023/04/10 09:39:42;;;;;;;18.77;13.77;;;14.80;99.90;;;;;;5067211;28;20067;-83
2023/04/10 09:42:08;;;;;;;17.92;13.73;;;15.00;99.90;;;;;;5068306;28;20043;-84
2023/04/10 09:44:36;;;;;;;22.00;14.60;;;15.10;99.90;;;;;;5047188;28;20028;-84
2023/04/10 09:47:18;;;;;;;18.95;12.68;;;15.20;99.90;;;;;;5074599;28;20492;-82
2023/04/10 09:49:51;;;;;;;17.75;12.55;;;15.20;99.90;;;;;;5070611;28;20032;-82
2023/04/10 09:52:21;;;;;;;18.77;12.52;;;15.20;99.90;;;;;;5066800;28;20059;-82
2023/04/10 09:54:47;;;;;;;15.27;11.32;;;15.20;99.90;;;;;;5061990;28;20073;-83
2023/04/10 09:57:17;;;;;;;16.35;11.60;;;15.30;99.90;;;;;;5065662;28;20118;-85
2023/04/10 09:59:50;;;;;;;15.07;11.80;;;15.30;99.90;;;;;;5041228;28;20445;-82
2023/04/10 10:02:22;;;;;;;15.83;12.30;;;15.40;99.90;;;;;;5058280;28;20120;-84
2023/04/10 10:04:49;;;;;;;15.50;12.18;;;15.20;99.90;;;;;;5047372;28;20322;-83
2023/04/10 10:07:16;;;;;;;15.38;11.25;;;15.20;99.90;;;;;;5060083;28;20415;-82
2023/04/10 10:09:43;;;;;;;17.80;11.57;;;15.30;99.90;;;;;;5057197;28;20123;-83
2023/04/10 10:12:16;;;;;;;14.48;10.52;;;15.50;99.90;;;;;;5037879;28;20040;-82
2023/04/10 10:15:13;;;;;;;14.70;11.23;;;15.60;99.90;;;;;;5067324;28;20492;-82
2023/04/10 10:17:45;;;;;;;14.20;10.38;;;15.70;99.90;;;;;;5059652;28;20548;-83
2023/04/10 10:20:12;;;;;;;15.77;11.07;;;15.70;99.90;;;;;;5058627;28;20470;-81
2023/04/10 10:22:39;;;;;;;13.50;10.07;;;15.60;99.90;;;;;;5059810;28;20041;-82
2023/04/10 10:25:06;;;;;;;15.02;10.60;;;15.80;99.90;;;;;;5064420;28;20036;-84
2023/04/10 10:27:35;;;;;;;15.52;10.25;;;15.80;99.70;;;;;;5036343;28;20110;-83
2023/04/10 10:30:02;;;;;;;13.63;11.20;;;15.80;99.90;;;;;;5058476;28;20177;-82
2023/04/10 10:32:29;;;;;;;13.13;9.68;;;15.70;99.90;;;;;;5069673;28;20044;-84
2023/04/10 10:34:56;;;;;;;12.65;10.00;;;15.60;99.90;;;;;;5064525;28;20041;-83
2023/04/10 10:37:22;;;;;;;14.55;10.07;;;15.70;99.90;;;;;;5068037;28;20151;-83
2023/04/10 10:40:33;;;;;;;12.85;9.15;;;15.60;99.90;;;;;;5066296;28;20131;-83
2023/04/10 10:43:19;;;;;;;13.45;10.25;;;15.50;99.90;;;;;;5045090;28;20053;-83
2023/04/10 10:45:57;;;;;;;11.82;9.68;;;15.40;99.90;;;;;;5066413;28;20052;-84
2023/04/10 10:48:23;;;;;;;12.25;8.13;;;15.30;99.90;;;;;;5069516;28;20044;-81
2023/04/10 10:50:55;;;;;;;12.27;8.52;;;15.30;99.90;;;;;;5064855;28;20048;-82
2023/04/10 10:53:39;;;;;;;11.25;8.43;;;15.20;98.40;;;;;;5070841;28;20127;-83
2023/04/10 10:56:17;;;;;;;9.75;7.28;;;15.20;98.40;;;;;;5049989;28;20040;-83
2023/04/10 10:58:51;;;;;;;11.43;8.18;;;15.20;99.20;;;;;;5073835;28;20439;-84
2023/04/10 11:01:17;;;;;;;10.20;8.02;;;15.20;99.30;;;;;;5074203;28;20107;-83
2023/04/10 11:03:44;;;;;;;9.30;7.50;;;15.20;99.60;;;;;;5074351;28;20037;-83
2023/04/10 11:06:18;;;;;;;12.00;7.32;;;15.30;99.40;;;;;;5069319;28;20886;-83
2023/04/10 11:08:48;;;;;;;9.98;7.68;;;15.40;99.10;;;;;;5071058;28;20454;-84
2023/04/10 11:11:19;;;;;;;9.52;7.03;;;15.50;99.50;;;;;;5053901;28;20040;-82
2023/04/10 11:13:56;;;;;;;11.98;7.72;;;15.50;98.90;;;;;;5067269;28;20051;-83
2023/04/10 11:16:42;;;;;;;12.35;7.55;;;15.60;99.20;;;;;;5067142;28;20515;-81
2023/04/10 11:19:11;;;;;;;12.05;7.35;;;15.70;99.20;;;;;;5071088;28;20045;-82
2023/04/10 11:22:07;;;;;;;9.40;7.28;;;15.60;99.00;;;;;;5072705;28;20041;-83
2023/04/10 11:24:52;;;;;;;10.13;7.43;;;15.70;98.40;;;;;;5063296;28;20036;-83
2023/04/10 11:27:40;;;;;;;10.18;7.30;;;15.80;98.70;;;;;;5066811;28;20504;-82
2023/04/10 11:30:29;;;;;;;8.20;6.82;;;15.80;98.90;;;;;;5070637;28;20040;-82
2023/04/10 11:32:55;;;;;;;8.80;7.15;;;15.80;99.20;;;;;;5067806;28;20139;-82
2023/04/10 11:35:21;;;;;;;8.45;7.00;;;15.90;99.70;;;;;;5065451;28;20037;-82
2023/04/10 11:37:47;;;;;;;9.20;7.20;;;16.00;99.30;;;;;;5070941;28;20092;-82
2023/04/10 11:40:13;;;;;;;8.45;6.57;;;15.90;98.70;;;;;;5069571;28;20068;-81
2023/04/10 11:42:38;;;;;;;8.38;6.28;;;15.90;99.00;;;;;;5070798;28;20071;-80
2023/04/10 11:45:27;;;;;;;10.10;6.43;;;15.90;99.30;;;;;;5066536;28;20082;-83
2023/04/10 11:47:53;;;;;;;7.15;5.70;;;15.90;99.00;;;;;;5070253;28;20040;-82
2023/04/10 11:50:20;;;;;;;8.02;6.32;;;15.90;98.90;;;;;;5066373;28;20372;-81
2023/04/10 11:52:48;;;;;;;8.82;5.72;;;16.00;98.80;;;;;;5076004;28;20472;-85
2023/04/10 11:55:15;;;;;;;8.48;5.75;;;16.10;98.20;;;;;;5069539;28;20456;-81
2023/04/10 11:57:41;;;;;;;6.97;5.68;;;16.10;98.60;;;;;;5066375;28;20044;-82
2023/04/10 12:00:07;;;;;;;6.55;5.28;;;16.30;98.80;;;;;;5048975;28;20052;-83
2023/04/10 12:02:33;;;;;;;7.47;5.30;;;16.40;98.70;;;;;;5070271;28;20043;-83
2023/04/10 12:04:59;;;;;;;7.28;5.53;;;16.60;98.80;;;;;;5062380;28;20492;-84
2023/04/10 12:07:28;;;;;;;6.32;5.20;;;16.60;98.50;;;;;;5065867;28;20128;-82
2023/04/10 12:09:57;;;;;;;7.40;5.28;;;16.80;98.80;;;;;;5065364;28;20583;-83
2023/04/10 12:12:35;;;;;;;6.97;5.38;;;16.80;97.80;;;;;;5066799;28;20039;-83
2023/04/10 12:15:02;;;;;;;6.95;5.03;;;17.10;98.50;;;;;;5071267;28;20119;-82
2023/04/10 12:17:28;;;;;;;6.95;4.82;;;17.20;97.40;;;;;;5071168;28;20082;-83
2023/04/10 12:19:54;;;;;;;7.50;5.30;;;17.50;97.40;;;;;;5067357;28;20049;-84
2023/04/10 12:22:20;;;;;;;6.68;4.93;;;17.80;96.90;;;;;;5064933;28;20050;-84
2023/04/10 12:24:51;;;;;;;6.57;4.80;;;17.90;96.70;;;;;;5063211;28;20411;-83
2023/04/10 12:27:22;;;;;;;5.93;4.40;;;18.00;95.40;;;;;;5067717;28;20408;-83
2023/04/10 12:29:55;;;;;;;6.85;4.70;;;17.90;94.20;;;;;;5068378;28;20120;-84
2023/04/10 12:32:22;;;;;;;6.45;4.63;;;17.60;94.40;;;;;;5070713;28;20080;-86
2023/04/10 12:34:52;;;;;;;6.07;4.50;;;17.50;94.80;;;;;;5070634;28;20047;-86
2023/04/10 12:37:19;;;;;;;6.80;4.75;;;17.50;95.50;;;;;;5070334;28;20044;-85
2023/04/10 12:39:44;;;;;;;8.88;4.50;;;17.40;95.50;;;;;;5067931;28;20075;-85
2023/04/10 12:42:21;;;;;;;6.05;4.60;;;17.40;96.20;;;;;;5061267;28;20983;-84